Accueil
METAR-TAF:

METAR-TAF

Aéroports :

Wainwright, Alaska, États-Unis

latitude: 64-50N, longitude: 147-37W, altitude: 137 m

Observation

Le bulletin a été fait il y a 24 minutes, à 04:58 UTC
Vent calme
Température -14°C
Humidité 85%
Pression 995 hPa
Visibilité: 16.1 km
Nuages fragmentés à une hauteur de 10000 ft
Ciel couvert à une hauteur de 12000 ft

METAR: PAFB 080458Z AUTO 00000KT 10SM BKN100 OVC120 M14/M16 A2939 RMK AO2 SLP969 T11401157

Heure: 20:22 (05:22 UTC)

Prévision

Le bulletin a été fait il y a 21 heures et 22 minutes, à 08:00 UTC
Prévision valable du 07 à 08 UTC au 08 à 14 UTC
Vent 6 kt de direction variable
Visibilité: 0916 m
Quelques nuages à une hauteur de 5000 ft

TAF: PAFB 070800Z 0708/0814 VRB06KT 9999 FEW050 510306 QNH2939INS TXM17/0800Z TNM30/0709Z LAST NO AMDS AFT 0708 NEXT 0916

Observations et prévisions météorologiques de plus de 4000 aéroports (messages METAR et TAF).

Les stations disponibles sont représentées par des disques jaunes et rouges sur la carte.

Passer la souris dessus pour voir le nom de la station.

Cliquer dessus pour voir les observations et prévisions météorologiques.

Pour changer de carte: cliquez sur les boutons verts avec une croix noire pour zoomer, sur le bouton vert avec un tiret pour effectuer un zoom arrière, ou sur les flèches vertes pour les cartes adjacentes.


METAR-TAF: